sensor_id;sensor_type;location;lat;lon;timestamp;P1;durP1;ratioP1;P2;durP2;ratioP2
8191;SDS011;4137;49.764;8.652;2022-07-23T00:01:19;7.40;;;6.97;;
8191;SDS011;4137;49.764;8.652;2022-07-23T00:03:45;6.95;;;6.50;;
8191;SDS011;4137;49.764;8.652;2022-07-23T00:06:11;6.85;;;6.50;;
8191;SDS011;4137;49.764;8.652;2022-07-23T00:08:37;7.47;;;6.95;;
8191;SDS011;4137;49.764;8.652;2022-07-23T00:11:03;6.72;;;6.22;;
8191;SDS011;4137;49.764;8.652;2022-07-23T00:13:29;7.03;;;6.63;;
8191;SDS011;4137;49.764;8.652;2022-07-23T00:15:55;6.50;;;6.28;;
8191;SDS011;4137;49.764;8.652;2022-07-23T00:18:21;7.05;;;6.65;;
8191;SDS011;4137;49.764;8.652;2022-07-23T00:20:47;7.93;;;7.20;;
8191;SDS011;4137;49.764;8.652;2022-07-23T00:23:14;6.88;;;6.32;;
8191;SDS011;4137;49.764;8.652;2022-07-23T00:25:40;6.50;;;6.07;;
8191;SDS011;4137;49.764;8.652;2022-07-23T00:28:06;8.63;;;7.40;;
8191;SDS011;4137;49.764;8.652;2022-07-23T00:30:32;8.40;;;7.65;;
8191;SDS011;4137;49.764;8.652;2022-07-23T00:32:59;8.85;;;7.72;;
8191;SDS011;4137;49.764;8.652;2022-07-23T00:35:25;8.00;;;7.60;;
8191;SDS011;4137;49.764;8.652;2022-07-23T00:37:52;9.05;;;8.32;;
8191;SDS011;4137;49.764;8.652;2022-07-23T00:40:18;9.07;;;8.43;;
8191;SDS011;4137;49.764;8.652;2022-07-23T00:42:44;9.52;;;8.82;;
8191;SDS011;4137;49.764;8.652;2022-07-23T00:45:10;8.73;;;8.23;;
8191;SDS011;4137;49.764;8.652;2022-07-23T00:47:36;8.93;;;8.05;;
8191;SDS011;4137;49.764;8.652;2022-07-23T00:50:03;9.32;;;8.52;;
8191;SDS011;4137;49.764;8.652;2022-07-23T00:52:29;8.20;;;7.70;;
8191;SDS011;4137;49.764;8.652;2022-07-23T00:54:55;8.57;;;7.97;;
8191;SDS011;4137;49.764;8.652;2022-07-23T00:57:21;7.85;;;7.45;;
8191;SDS011;4137;49.764;8.652;2022-07-23T00:59:47;7.88;;;7.25;;
8191;SDS011;4137;49.764;8.652;2022-07-23T01:02:13;7.93;;;7.35;;
8191;SDS011;4137;49.764;8.652;2022-07-23T01:04:39;7.53;;;7.13;;
8191;SDS011;4137;49.764;8.652;2022-07-23T01:07:06;7.93;;;7.40;;
8191;SDS011;4137;49.764;8.652;2022-07-23T01:09:32;7.70;;;7.30;;
8191;SDS011;4137;49.764;8.652;2022-07-23T01:11:58;8.52;;;7.82;;
8191;SDS011;4137;49.764;8.652;2022-07-23T01:14:25;8.13;;;7.63;;
8191;SDS011;4137;49.764;8.652;2022-07-23T01:16:52;7.18;;;6.78;;
8191;SDS011;4137;49.764;8.652;2022-07-23T01:19:18;8.77;;;8.10;;
8191;SDS011;4137;49.764;8.652;2022-07-23T01:21:45;8.05;;;7.55;;
8191;SDS011;4137;49.764;8.652;2022-07-23T01:24:11;7.95;;;7.32;;
8191;SDS011;4137;49.764;8.652;2022-07-23T01:26:38;7.80;;;7.07;;
8191;SDS011;4137;49.764;8.652;2022-07-23T01:29:04;7.18;;;6.75;;
8191;SDS011;4137;49.764;8.652;2022-07-23T01:31:31;7.88;;;7.47;;
8191;SDS011;4137;49.764;8.652;2022-07-23T01:33:57;8.80;;;8.00;;
8191;SDS011;4137;49.764;8.652;2022-07-23T01:36:23;8.18;;;7.45;;
8191;SDS011;4137;49.764;8.652;2022-07-23T01:38:49;7.63;;;7.13;;
8191;SDS011;4137;49.764;8.652;2022-07-23T01:41:15;7.75;;;7.07;;
8191;SDS011;4137;49.764;8.652;2022-07-23T01:43:42;8.43;;;7.78;;
8191;SDS011;4137;49.764;8.652;2022-07-23T01:46:08;8.10;;;7.63;;
8191;SDS011;4137;49.764;8.652;2022-07-23T01:48:34;7.93;;;7.43;;
8191;SDS011;4137;49.764;8.652;2022-07-23T01:51:00;7.45;;;7.05;;
8191;SDS011;4137;49.764;8.652;2022-07-23T01:53:26;8.07;;;7.68;;
8191;SDS011;4137;49.764;8.652;2022-07-23T01:55:52;6.78;;;6.57;;
8191;SDS011;4137;49.764;8.652;2022-07-23T01:58:18;7.75;;;7.25;;
8191;SDS011;4137;49.764;8.652;2022-07-23T02:00:44;8.45;;;7.95;;
8191;SDS011;4137;49.764;8.652;2022-07-23T02:03:10;7.57;;;7.18;;
8191;SDS011;4137;49.764;8.652;2022-07-23T02:05:36;7.50;;;7.20;;
8191;SDS011;4137;49.764;8.652;2022-07-23T02:08:02;6.90;;;6.63;;
8191;SDS011;4137;49.764;8.652;2022-07-23T02:10:28;6.70;;;6.35;;
8191;SDS011;4137;49.764;8.652;2022-07-23T02:12:55;7.60;;;6.93;;
8191;SDS011;4137;49.764;8.652;2022-07-23T02:15:21;6.78;;;6.57;;
8191;SDS011;4137;49.764;8.652;2022-07-23T02:17:47;7.38;;;6.65;;
8191;SDS011;4137;49.764;8.652;2022-07-23T02:20:13;7.30;;;6.72;;
8191;SDS011;4137;49.764;8.652;2022-07-23T02:22:39;8.15;;;7.40;;
8191;SDS011;4137;49.764;8.652;2022-07-23T02:25:06;7.65;;;6.95;;
8191;SDS011;4137;49.764;8.652;2022-07-23T02:27:32;7.20;;;6.90;;
8191;SDS011;4137;49.764;8.652;2022-07-23T02:29:58;7.50;;;7.07;;
8191;SDS011;4137;49.764;8.652;2022-07-23T02:32:25;8.13;;;7.40;;
8191;SDS011;4137;49.764;8.652;2022-07-23T02:34:51;7.47;;;7.07;;
8191;SDS011;4137;49.764;8.652;2022-07-23T02:37:17;7.57;;;6.95;;
8191;SDS011;4137;49.764;8.652;2022-07-23T02:39:43;7.65;;;7.15;;
8191;SDS011;4137;49.764;8.652;2022-07-23T02:42:09;7.75;;;7.38;;
8191;SDS011;4137;49.764;8.652;2022-07-23T02:44:35;7.65;;;7.25;;
8191;SDS011;4137;49.764;8.652;2022-07-23T02:47:02;7.78;;;7.28;;
8191;SDS011;4137;49.764;8.652;2022-07-23T02:49:28;8.65;;;8.10;;
8191;SDS011;4137;49.764;8.652;2022-07-23T02:51:54;8.02;;;7.63;;
8191;SDS011;4137;49.764;8.652;2022-07-23T02:54:20;9.15;;;8.52;;
8191;SDS011;4137;49.764;8.652;2022-07-23T02:56:46;8.57;;;8.07;;
8191;SDS011;4137;49.764;8.652;2022-07-23T02:59:12;8.48;;;7.95;;
8191;SDS011;4137;49.764;8.652;2022-07-23T03:01:38;8.13;;;7.43;;
8191;SDS011;4137;49.764;8.652;2022-07-23T03:04:04;7.47;;;7.07;;
8191;SDS011;4137;49.764;8.652;2022-07-23T03:06:30;7.68;;;7.18;;
8191;SDS011;4137;49.764;8.652;2022-07-23T03:08:56;8.50;;;7.78;;
8191;SDS011;4137;49.764;8.652;2022-07-23T03:11:22;7.93;;;7.35;;
8191;SDS011;4137;49.764;8.652;2022-07-23T03:13:48;7.88;;;7.25;;
8191;SDS011;4137;49.764;8.652;2022-07-23T03:16:14;7.80;;;7.40;;
8191;SDS011;4137;49.764;8.652;2022-07-23T03:18:40;8.35;;;7.82;;
8191;SDS011;4137;49.764;8.652;2022-07-23T03:21:06;8.35;;;7.80;;
8191;SDS011;4137;49.764;8.652;2022-07-23T03:23:33;8.75;;;8.15;;
8191;SDS011;4137;49.764;8.652;2022-07-23T03:25:59;7.95;;;7.50;;
8191;SDS011;4137;49.764;8.652;2022-07-23T03:28:25;7.63;;;7.20;;
8191;SDS011;4137;49.764;8.652;2022-07-23T03:30:51;8.77;;;8.15;;
8191;SDS011;4137;49.764;8.652;2022-07-23T03:33:17;8.90;;;8.30;;
8191;SDS011;4137;49.764;8.652;2022-07-23T03:35:44;8.52;;;7.43;;
8191;SDS011;4137;49.764;8.652;2022-07-23T03:38:10;8.25;;;7.65;;
8191;SDS011;4137;49.764;8.652;2022-07-23T03:40:36;7.70;;;7.07;;
8191;SDS011;4137;49.764;8.652;2022-07-23T03:43:02;7.95;;;7.40;;
8191;SDS011;4137;49.764;8.652;2022-07-23T03:45:28;8.05;;;7.55;;
8191;SDS011;4137;49.764;8.652;2022-07-23T03:47:54;8.77;;;8.10;;
8191;SDS011;4137;49.764;8.652;2022-07-23T03:50:20;7.78;;;7.28;;
8191;SDS011;4137;49.764;8.652;2022-07-23T03:52:46;7.57;;;7.10;;
8191;SDS011;4137;49.764;8.652;2022-07-23T03:55:13;7.57;;;7.07;;
8191;SDS011;4137;49.764;8.652;2022-07-23T03:57:39;7.85;;;7.35;;
8191;SDS011;4137;49.764;8.652;2022-07-23T04:00:07;8.10;;;7.55;;
8191;SDS011;4137;49.764;8.652;2022-07-23T04:02:34;8.35;;;7.88;;
8191;SDS011;4137;49.764;8.652;2022-07-23T04:05:00;8.40;;;7.70;;
8191;SDS011;4137;49.764;8.652;2022-07-23T04:07:26;8.30;;;7.57;;
8191;SDS011;4137;49.764;8.652;2022-07-23T04:09:52;8.02;;;7.30;;
8191;SDS011;4137;49.764;8.652;2022-07-23T04:12:18;8.05;;;7.53;;
8191;SDS011;4137;49.764;8.652;2022-07-23T04:14:45;8.15;;;7.45;;
8191;SDS011;4137;49.764;8.652;2022-07-23T04:17:11;8.57;;;7.90;;
8191;SDS011;4137;49.764;8.652;2022-07-23T04:19:37;9.27;;;8.27;;
8191;SDS011;4137;49.764;8.652;2022-07-23T04:22:06;9.25;;;8.50;;
8191;SDS011;4137;49.764;8.652;2022-07-23T04:24:33;8.95;;;8.20;;
8191;SDS011;4137;49.764;8.652;2022-07-23T04:26:59;8.07;;;7.57;;
8191;SDS011;4137;49.764;8.652;2022-07-23T04:29:25;9.18;;;8.48;;
8191;SDS011;4137;49.764;8.652;2022-07-23T04:31:51;8.80;;;8.25;;
8191;SDS011;4137;49.764;8.652;2022-07-23T04:34:17;8.20;;;7.70;;
8191;SDS011;4137;49.764;8.652;2022-07-23T04:36:43;8.13;;;7.63;;
8191;SDS011;4137;49.764;8.652;2022-07-23T04:39:09;8.60;;;8.07;;
8191;SDS011;4137;49.764;8.652;2022-07-23T04:41:35;9.80;;;8.95;;
8191;SDS011;4137;49.764;8.652;2022-07-23T04:44:02;7.97;;;7.47;;
8191;SDS011;4137;49.764;8.652;2022-07-23T04:46:28;7.32;;;6.85;;
8191;SDS011;4137;49.764;8.652;2022-07-23T04:48:54;7.53;;;7.05;;
8191;SDS011;4137;49.764;8.652;2022-07-23T04:51:20;7.43;;;6.88;;
8191;SDS011;4137;49.764;8.652;2022-07-23T04:53:46;7.65;;;7.10;;
8191;SDS011;4137;49.764;8.652;2022-07-23T04:56:12;8.15;;;7.43;;
8191;SDS011;4137;49.764;8.652;2022-07-23T04:58:38;8.23;;;7.55;;
8191;SDS011;4137;49.764;8.652;2022-07-23T05:01:05;8.00;;;7.50;;
8191;SDS011;4137;49.764;8.652;2022-07-23T05:03:31;7.72;;;7.22;;
8191;SDS011;4137;49.764;8.652;2022-07-23T05:05:57;8.25;;;7.63;;
8191;SDS011;4137;49.764;8.652;2022-07-23T05:08:23;8.23;;;7.72;;
8191;SDS011;4137;49.764;8.652;2022-07-23T05:10:49;8.88;;;8.27;;
8191;SDS011;4137;49.764;8.652;2022-07-23T05:13:15;8.93;;;8.00;;
8191;SDS011;4137;49.764;8.652;2022-07-23T05:15:41;11.95;;;11.00;;
8191;SDS011;4137;49.764;8.652;2022-07-23T05:18:08;9.60;;;8.57;;
8191;SDS011;4137;49.764;8.652;2022-07-23T05:20:34;11.65;;;10.48;;
8191;SDS011;4137;49.764;8.652;2022-07-23T05:23:00;8.38;;;7.75;;
8191;SDS011;4137;49.764;8.652;2022-07-23T05:25:26;8.70;;;7.93;;
8191;SDS011;4137;49.764;8.652;2022-07-23T05:27:52;8.35;;;7.85;;
8191;SDS011;4137;49.764;8.652;2022-07-23T05:30:18;9.15;;;8.45;;
8191;SDS011;4137;49.764;8.652;2022-07-23T05:32:44;9.70;;;8.88;;
8191;SDS011;4137;49.764;8.652;2022-07-23T05:35:11;9.15;;;8.55;;
8191;SDS011;4137;49.764;8.652;2022-07-23T05:37:37;9.25;;;8.55;;
8191;SDS011;4137;49.764;8.652;2022-07-23T05:40:04;9.00;;;8.40;;
8191;SDS011;4137;49.764;8.652;2022-07-23T05:42:32;9.18;;;8.57;;
8191;SDS011;4137;49.764;8.652;2022-07-23T05:44:58;8.77;;;8.27;;
8191;SDS011;4137;49.764;8.652;2022-07-23T05:47:24;9.02;;;8.43;;
8191;SDS011;4137;49.764;8.652;2022-07-23T05:49:50;9.40;;;8.80;;
8191;SDS011;4137;49.764;8.652;2022-07-23T05:52:16;8.90;;;8.35;;
8191;SDS011;4137;49.764;8.652;2022-07-23T05:54:43;9.35;;;8.65;;
8191;SDS011;4137;49.764;8.652;2022-07-23T05:57:09;8.98;;;8.38;;
8191;SDS011;4137;49.764;8.652;2022-07-23T05:59:35;9.25;;;8.50;;
8191;SDS011;4137;49.764;8.652;2022-07-23T06:02:01;8.65;;;8.13;;
8191;SDS011;4137;49.764;8.652;2022-07-23T06:04:27;9.27;;;8.68;;
8191;SDS011;4137;49.764;8.652;2022-07-23T06:06:53;9.77;;;8.50;;
8191;SDS011;4137;49.764;8.652;2022-07-23T06:09:19;10.88;;;8.27;;
8191;SDS011;4137;49.764;8.652;2022-07-23T06:11:45;8.70;;;8.20;;
8191;SDS011;4137;49.764;8.652;2022-07-23T06:14:11;9.05;;;8.30;;
8191;SDS011;4137;49.764;8.652;2022-07-23T06:16:37;8.40;;;7.70;;
8191;SDS011;4137;49.764;8.652;2022-07-23T06:19:03;8.00;;;7.53;;
8191;SDS011;4137;49.764;8.652;2022-07-23T06:21:29;8.45;;;7.85;;
8191;SDS011;4137;49.764;8.652;2022-07-23T06:23:55;8.13;;;7.63;;
8191;SDS011;4137;49.764;8.652;2022-07-23T06:26:21;7.88;;;7.32;;
8191;SDS011;4137;49.764;8.652;2022-07-23T06:28:47;13.25;;;9.50;;
8191;SDS011;4137;49.764;8.652;2022-07-23T06:31:13;8.05;;;7.45;;
8191;SDS011;4137;49.764;8.652;2022-07-23T06:33:39;8.50;;;7.60;;
8191;SDS011;4137;49.764;8.652;2022-07-23T06:36:05;8.55;;;7.82;;
8191;SDS011;4137;49.764;8.652;2022-07-23T06:38:31;7.38;;;6.88;;
8191;SDS011;4137;49.764;8.652;2022-07-23T06:40:57;7.70;;;7.20;;
8191;SDS011;4137;49.764;8.652;2022-07-23T06:43:23;8.02;;;7.22;;
8191;SDS011;4137;49.764;8.652;2022-07-23T06:45:49;8.10;;;7.50;;
8191;SDS011;4137;49.764;8.652;2022-07-23T06:48:15;8.00;;;7.40;;
8191;SDS011;4137;49.764;8.652;2022-07-23T06:50:41;7.30;;;6.80;;
8191;SDS011;4137;49.764;8.652;2022-07-23T06:53:07;8.02;;;7.60;;
8191;SDS011;4137;49.764;8.652;2022-07-23T06:55:33;7.93;;;7.53;;
8191;SDS011;4137;49.764;8.652;2022-07-23T06:58:03;7.93;;;7.22;;
8191;SDS011;4137;49.764;8.652;2022-07-23T07:00:29;7.25;;;6.75;;
8191;SDS011;4137;49.764;8.652;2022-07-23T07:02:56;7.55;;;7.05;;
8191;SDS011;4137;49.764;8.652;2022-07-23T07:05:22;7.40;;;6.90;;
8191;SDS011;4137;49.764;8.652;2022-07-23T07:07:50;8.00;;;7.45;;
8191;SDS011;4137;49.764;8.652;2022-07-23T07:10:16;7.50;;;6.90;;
8191;SDS011;4137;49.764;8.652;2022-07-23T07:12:42;7.90;;;7.25;;
8191;SDS011;4137;49.764;8.652;2022-07-23T07:15:08;7.75;;;7.15;;
8191;SDS011;4137;49.764;8.652;2022-07-23T07:17:34;8.10;;;7.40;;
8191;SDS011;4137;49.764;8.652;2022-07-23T07:20:00;8.07;;;7.40;;
8191;SDS011;4137;49.764;8.652;2022-07-23T07:22:26;6.97;;;6.65;;
8191;SDS011;4137;49.764;8.652;2022-07-23T07:24:52;7.90;;;7.35;;
8191;SDS011;4137;49.764;8.652;2022-07-23T07:27:19;7.80;;;7.28;;
8191;SDS011;4137;49.764;8.652;2022-07-23T07:29:45;8.35;;;7.55;;
8191;SDS011;4137;49.764;8.652;2022-07-23T07:32:11;7.63;;;7.20;;
8191;SDS011;4137;49.764;8.652;2022-07-23T07:34:37;7.90;;;7.30;;
8191;SDS011;4137;49.764;8.652;2022-07-23T07:37:03;7.70;;;7.20;;
8191;SDS011;4137;49.764;8.652;2022-07-23T07:39:29;6.85;;;6.35;;
8191;SDS011;4137;49.764;8.652;2022-07-23T07:41:55;7.47;;;6.97;;
8191;SDS011;4137;49.764;8.652;2022-07-23T07:44:21;8.77;;;8.00;;
8191;SDS011;4137;49.764;8.652;2022-07-23T07:46:47;8.20;;;7.45;;
8191;SDS011;4137;49.764;8.652;2022-07-23T07:49:13;7.72;;;7.22;;
8191;SDS011;4137;49.764;8.652;2022-07-23T07:51:39;7.50;;;7.00;;
8191;SDS011;4137;49.764;8.652;2022-07-23T07:54:05;6.93;;;6.63;;
8191;SDS011;4137;49.764;8.652;2022-07-23T07:56:31;7.38;;;6.78;;
8191;SDS011;4137;49.764;8.652;2022-07-23T07:58:57;8.07;;;7.57;;
8191;SDS011;4137;49.764;8.652;2022-07-23T08:01:23;7.93;;;7.45;;
8191;SDS011;4137;49.764;8.652;2022-07-23T08:03:49;7.97;;;7.25;;
8191;SDS011;4137;49.764;8.652;2022-07-23T08:06:15;8.32;;;7.57;;
8191;SDS011;4137;49.764;8.652;2022-07-23T08:08:41;7.38;;;7.07;;
8191;SDS011;4137;49.764;8.652;2022-07-23T08:11:07;7.65;;;7.25;;
8191;SDS011;4137;49.764;8.652;2022-07-23T08:13:33;7.35;;;6.82;;
8191;SDS011;4137;49.764;8.652;2022-07-23T08:15:59;7.22;;;6.85;;
8191;SDS011;4137;49.764;8.652;2022-07-23T08:18:26;7.65;;;7.22;;
8191;SDS011;4137;49.764;8.652;2022-07-23T08:20:52;7.80;;;7.40;;
8191;SDS011;4137;49.764;8.652;2022-07-23T08:23:18;7.60;;;7.15;;
8191;SDS011;4137;49.764;8.652;2022-07-23T08:25:45;6.80;;;6.50;;
8191;SDS011;4137;49.764;8.652;2022-07-23T08:28:12;7.25;;;6.95;;
8191;SDS011;4137;49.764;8.652;2022-07-23T08:30:39;7.53;;;7.20;;
8191;SDS011;4137;49.764;8.652;2022-07-23T08:33:07;7.40;;;6.85;;
8191;SDS011;4137;49.764;8.652;2022-07-23T08:35:37;7.03;;;6.68;;
8191;SDS011;4137;49.764;8.652;2022-07-23T08:38:04;7.57;;;7.18;;
8191;SDS011;4137;49.764;8.652;2022-07-23T08:40:32;7.30;;;6.90;;
8191;SDS011;4137;49.764;8.652;2022-07-23T08:42:58;7.95;;;7.45;;
8191;SDS011;4137;49.764;8.652;2022-07-23T08:45:25;7.70;;;7.30;;
8191;SDS011;4137;49.764;8.652;2022-07-23T08:47:55;6.97;;;6.40;;
8191;SDS011;4137;49.764;8.652;2022-07-23T08:50:22;7.20;;;6.80;;
8191;SDS011;4137;49.764;8.652;2022-07-23T08:52:48;7.30;;;6.70;;
8191;SDS011;4137;49.764;8.652;2022-07-23T08:55:15;6.88;;;6.55;;
8191;SDS011;4137;49.764;8.652;2022-07-23T08:57:42;7.53;;;7.03;;
8191;SDS011;4137;49.764;8.652;2022-07-23T09:00:08;7.00;;;6.70;;
8191;SDS011;4137;49.764;8.652;2022-07-23T09:02:41;8.18;;;7.38;;
8191;SDS011;4137;49.764;8.652;2022-07-23T09:05:08;7.03;;;6.60;;
8191;SDS011;4137;49.764;8.652;2022-07-23T09:07:36;7.63;;;7.22;;
8191;SDS011;4137;49.764;8.652;2022-07-23T09:10:06;7.72;;;7.18;;
8191;SDS011;4137;49.764;8.652;2022-07-23T09:12:33;6.78;;;6.40;;
8191;SDS011;4137;49.764;8.652;2022-07-23T09:15:06;8.23;;;7.63;;
8191;SDS011;4137;49.764;8.652;2022-07-23T09:17:39;7.15;;;6.75;;
8191;SDS011;4137;49.764;8.652;2022-07-23T09:20:10;7.38;;;7.03;;
8191;SDS011;4137;49.764;8.652;2022-07-23T09:22:36;6.85;;;6.45;;
8191;SDS011;4137;49.764;8.652;2022-07-23T09:30:13;7.60;;;7.10;;
8191;SDS011;4137;49.764;8.652;2022-07-23T09:32:39;7.70;;;6.78;;
8191;SDS011;4137;49.764;8.652;2022-07-23T09:35:06;6.82;;;6.53;;
8191;SDS011;4137;49.764;8.652;2022-07-23T09:37:32;7.35;;;6.85;;
8191;SDS011;4137;49.764;8.652;2022-07-23T09:40:08;6.60;;;6.10;;
8191;SDS011;4137;49.764;8.652;2022-07-23T09:42:36;7.20;;;6.93;;
8191;SDS011;4137;49.764;8.652;2022-07-23T09:45:02;6.85;;;6.55;;
8191;SDS011;4137;49.764;8.652;2022-07-23T09:47:30;6.60;;;6.15;;
8191;SDS011;4137;49.764;8.652;2022-07-23T09:50:00;6.45;;;6.15;;
8191;SDS011;4137;49.764;8.652;2022-07-23T09:52:36;5.88;;;5.55;;
8191;SDS011;4137;49.764;8.652;2022-07-23T09:55:04;6.25;;;5.85;;
8191;SDS011;4137;49.764;8.652;2022-07-23T09:57:31;5.82;;;5.63;;
8191;SDS011;4137;49.764;8.652;2022-07-23T09:59:58;5.80;;;5.60;;
8191;SDS011;4137;49.764;8.652;2022-07-23T10:02:25;6.20;;;5.90;;
8191;SDS011;4137;49.764;8.652;2022-07-23T10:04:53;5.63;;;5.53;;
8191;SDS011;4137;49.764;8.652;2022-07-23T10:07:21;5.85;;;5.65;;
8191;SDS011;4137;49.764;8.652;2022-07-23T10:09:48;5.72;;;5.53;;
8191;SDS011;4137;49.764;8.652;2022-07-23T10:12:17;5.82;;;5.72;;
8191;SDS011;4137;49.764;8.652;2022-07-23T10:15:03;6.28;;;5.97;;
8191;SDS011;4137;49.764;8.652;2022-07-23T10:17:31;5.40;;;5.20;;
8191;SDS011;4137;49.764;8.652;2022-07-23T10:19:57;5.00;;;4.85;;
8191;SDS011;4137;49.764;8.652;2022-07-23T10:22:24;5.68;;;5.43;;
8191;SDS011;4137;49.764;8.652;2022-07-23T10:30:39;6.05;;;5.70;;
8191;SDS011;4137;49.764;8.652;2022-07-23T10:35:56;6.50;;;5.93;;
8191;SDS011;4137;49.764;8.652;2022-07-23T10:38:25;6.80;;;6.50;;
8191;SDS011;4137;49.764;8.652;2022-07-23T10:40:57;6.72;;;6.53;;
8191;SDS011;4137;49.764;8.652;2022-07-23T10:43:23;7.97;;;7.35;;
8191;SDS011;4137;49.764;8.652;2022-07-23T10:45:49;6.53;;;6.32;;
8191;SDS011;4137;49.764;8.652;2022-07-23T10:51:05;6.82;;;6.45;;
8191;SDS011;4137;49.764;8.652;2022-07-23T10:59:02;7.70;;;7.15;;
8191;SDS011;4137;49.764;8.652;2022-07-23T11:01:38;6.70;;;6.47;;
8191;SDS011;4137;49.764;8.652;2022-07-23T11:04:04;7.03;;;6.63;;
8191;SDS011;4137;49.764;8.652;2022-07-23T11:09:26;7.32;;;6.80;;
8191;SDS011;4137;49.764;8.652;2022-07-23T11:17:22;7.35;;;6.95;;
8191;SDS011;4137;49.764;8.652;2022-07-23T11:25:04;7.50;;;6.95;;
8191;SDS011;4137;49.764;8.652;2022-07-23T11:27:40;7.07;;;6.55;;
8191;SDS011;4137;49.764;8.652;2022-07-23T11:30:07;7.55;;;7.03;;
8191;SDS011;4137;49.764;8.652;2022-07-23T11:32:37;7.55;;;7.10;;
8191;SDS011;4137;49.764;8.652;2022-07-23T11:35:25;7.70;;;7.40;;
8191;SDS011;4137;49.764;8.652;2022-07-23T11:37:50;6.65;;;6.35;;
8191;SDS011;4137;49.764;8.652;2022-07-23T11:40:23;7.45;;;7.00;;
8191;SDS011;4137;49.764;8.652;2022-07-23T11:42:53;6.93;;;6.63;;
8191;SDS011;4137;49.764;8.652;2022-07-23T11:45:20;6.90;;;6.53;;
8191;SDS011;4137;49.764;8.652;2022-07-23T11:47:46;6.68;;;6.40;;
8191;SDS011;4137;49.764;8.652;2022-07-23T11:50:12;6.72;;;6.43;;
8191;SDS011;4137;49.764;8.652;2022-07-23T11:52:38;6.20;;;6.00;;
8191;SDS011;4137;49.764;8.652;2022-07-23T11:55:06;6.70;;;6.38;;
8191;SDS011;4137;49.764;8.652;2022-07-23T11:57:33;6.43;;;6.13;;
8191;SDS011;4137;49.764;8.652;2022-07-23T12:02:35;5.95;;;5.50;;
8191;SDS011;4137;49.764;8.652;2022-07-23T12:05:02;6.00;;;5.70;;
8191;SDS011;4137;49.764;8.652;2022-07-23T12:07:36;6.00;;;5.78;;
8191;SDS011;4137;49.764;8.652;2022-07-23T12:10:04;6.13;;;5.88;;
8191;SDS011;4137;49.764;8.652;2022-07-23T12:12:43;5.72;;;5.53;;
8191;SDS011;4137;49.764;8.652;2022-07-23T12:15:11;5.90;;;5.50;;
8191;SDS011;4137;49.764;8.652;2022-07-23T12:17:38;6.05;;;5.95;;
8191;SDS011;4137;49.764;8.652;2022-07-23T12:20:05;5.65;;;5.45;;
8191;SDS011;4137;49.764;8.652;2022-07-23T12:22:39;6.65;;;6.18;;
8191;SDS011;4137;49.764;8.652;2022-07-23T12:25:07;6.70;;;6.10;;
8191;SDS011;4137;49.764;8.652;2022-07-23T12:27:34;6.45;;;6.15;;
8191;SDS011;4137;49.764;8.652;2022-07-23T12:30:14;5.95;;;5.68;;
8191;SDS011;4137;49.764;8.652;2022-07-23T12:32:42;6.47;;;6.10;;
8191;SDS011;4137;49.764;8.652;2022-07-23T12:35:09;6.15;;;5.95;;
8191;SDS011;4137;49.764;8.652;2022-07-23T12:37:36;6.25;;;6.05;;
8191;SDS011;4137;49.764;8.652;2022-07-23T12:42:50;6.13;;;5.70;;
8191;SDS011;4137;49.764;8.652;2022-07-23T12:45:17;6.20;;;5.65;;
8191;SDS011;4137;49.764;8.652;2022-07-23T12:47:56;6.60;;;6.30;;
8191;SDS011;4137;49.764;8.652;2022-07-23T12:53:09;6.55;;;6.28;;
8191;SDS011;4137;49.764;8.652;2022-07-23T12:55:36;6.55;;;6.20;;
8191;SDS011;4137;49.764;8.652;2022-07-23T12:58:03;6.25;;;5.95;;
8191;SDS011;4137;49.764;8.652;2022-07-23T13:00:30;6.72;;;6.43;;
8191;SDS011;4137;49.764;8.652;2022-07-23T13:02:56;6.22;;;6.03;;
8191;SDS011;4137;49.764;8.652;2022-07-23T13:05:22;6.05;;;5.85;;
8191;SDS011;4137;49.764;8.652;2022-07-23T13:07:48;6.60;;;6.07;;
8191;SDS011;4137;49.764;8.652;2022-07-23T13:10:14;6.28;;;5.88;;
8191;SDS011;4137;49.764;8.652;2022-07-23T13:12:40;6.20;;;5.82;;
8191;SDS011;4137;49.764;8.652;2022-07-23T13:15:06;6.10;;;5.70;;
8191;SDS011;4137;49.764;8.652;2022-07-23T13:17:32;5.35;;;5.18;;
8191;SDS011;4137;49.764;8.652;2022-07-23T13:19:58;5.90;;;5.60;;
8191;SDS011;4137;49.764;8.652;2022-07-23T13:22:24;5.50;;;5.30;;
8191;SDS011;4137;49.764;8.652;2022-07-23T13:24:50;6.03;;;5.60;;
8191;SDS011;4137;49.764;8.652;2022-07-23T13:27:17;5.70;;;5.32;;
8191;SDS011;4137;49.764;8.652;2022-07-23T13:29:43;6.03;;;5.82;;
8191;SDS011;4137;49.764;8.652;2022-07-23T13:32:12;6.03;;;5.63;;
8191;SDS011;4137;49.764;8.652;2022-07-23T13:34:38;6.50;;;6.07;;
8191;SDS011;4137;49.764;8.652;2022-07-23T13:37:04;6.43;;;6.22;;
8191;SDS011;4137;49.764;8.652;2022-07-23T13:39:30;5.88;;;5.78;;
8191;SDS011;4137;49.764;8.652;2022-07-23T13:41:56;5.90;;;5.80;;
8191;SDS011;4137;49.764;8.652;2022-07-23T13:44:22;5.93;;;5.78;;
8191;SDS011;4137;49.764;8.652;2022-07-23T13:46:49;6.28;;;6.03;;
8191;SDS011;4137;49.764;8.652;2022-07-23T13:49:15;5.72;;;5.43;;
8191;SDS011;4137;49.764;8.652;2022-07-23T13:51:41;6.57;;;6.18;;
8191;SDS011;4137;49.764;8.652;2022-07-23T13:54:07;6.22;;;5.95;;
8191;SDS011;4137;49.764;8.652;2022-07-23T13:56:33;6.15;;;5.85;;
8191;SDS011;4137;49.764;8.652;2022-07-23T13:58:59;6.50;;;6.10;;
8191;SDS011;4137;49.764;8.652;2022-07-23T14:01:25;6.65;;;6.35;;
8191;SDS011;4137;49.764;8.652;2022-07-23T14:03:51;6.55;;;6.25;;
8191;SDS011;4137;49.764;8.652;2022-07-23T14:06:17;7.28;;;6.75;;
8191;SDS011;4137;49.764;8.652;2022-07-23T14:08:44;6.32;;;5.90;;
8191;SDS011;4137;49.764;8.652;2022-07-23T14:11:10;6.68;;;6.28;;
8191;SDS011;4137;49.764;8.652;2022-07-23T14:13:36;6.07;;;5.80;;
8191;SDS011;4137;49.764;8.652;2022-07-23T14:16:02;5.95;;;5.60;;
8191;SDS011;4137;49.764;8.652;2022-07-23T14:18:28;6.10;;;5.90;;
8191;SDS011;4137;49.764;8.652;2022-07-23T14:20:54;5.93;;;5.55;;
8191;SDS011;4137;49.764;8.652;2022-07-23T14:23:20;5.50;;;5.30;;
8191;SDS011;4137;49.764;8.652;2022-07-23T14:25:46;5.72;;;5.53;;
8191;SDS011;4137;49.764;8.652;2022-07-23T14:28:12;5.68;;;5.32;;
8191;SDS011;4137;49.764;8.652;2022-07-23T14:30:38;6.25;;;5.75;;
8191;SDS011;4137;49.764;8.652;2022-07-23T14:33:04;5.90;;;5.40;;
8191;SDS011;4137;49.764;8.652;2022-07-23T14:35:30;6.00;;;5.60;;
8191;SDS011;4137;49.764;8.652;2022-07-23T14:37:56;6.13;;;5.93;;
8191;SDS011;4137;49.764;8.652;2022-07-23T14:40:24;5.97;;;5.75;;
8191;SDS011;4137;49.764;8.652;2022-07-23T14:42:50;6.15;;;5.70;;
8191;SDS011;4137;49.764;8.652;2022-07-23T14:45:16;6.13;;;5.75;;
8191;SDS011;4137;49.764;8.652;2022-07-23T14:47:42;6.20;;;5.50;;
8191;SDS011;4137;49.764;8.652;2022-07-23T14:50:08;5.40;;;5.30;;
8191;SDS011;4137;49.764;8.652;2022-07-23T14:52:34;6.75;;;6.50;;
8191;SDS011;4137;49.764;8.652;2022-07-23T14:55:03;6.38;;;6.18;;
8191;SDS011;4137;49.764;8.652;2022-07-23T14:57:29;6.47;;;6.05;;
8191;SDS011;4137;49.764;8.652;2022-07-23T14:59:55;5.90;;;5.70;;
8191;SDS011;4137;49.764;8.652;2022-07-23T15:02:21;5.80;;;5.50;;
8191;SDS011;4137;49.764;8.652;2022-07-23T15:04:47;6.18;;;5.75;;
8191;SDS011;4137;49.764;8.652;2022-07-23T15:07:13;6.05;;;5.82;;
8191;SDS011;4137;49.764;8.652;2022-07-23T15:09:39;6.13;;;5.82;;
8191;SDS011;4137;49.764;8.652;2022-07-23T15:12:05;6.57;;;6.07;;
8191;SDS011;4137;49.764;8.652;2022-07-23T15:14:31;5.95;;;5.80;;
8191;SDS011;4137;49.764;8.652;2022-07-23T15:16:57;5.32;;;5.13;;
8191;SDS011;4137;49.764;8.652;2022-07-23T15:19:23;6.63;;;6.30;;
8191;SDS011;4137;49.764;8.652;2022-07-23T15:21:51;6.22;;;6.03;;
8191;SDS011;4137;49.764;8.652;2022-07-23T15:24:17;6.88;;;6.53;;
8191;SDS011;4137;49.764;8.652;2022-07-23T15:26:43;5.57;;;5.43;;
8191;SDS011;4137;49.764;8.652;2022-07-23T15:29:09;6.22;;;5.85;;
8191;SDS011;4137;49.764;8.652;2022-07-23T15:31:35;5.97;;;5.68;;
8191;SDS011;4137;49.764;8.652;2022-07-23T15:34:01;5.78;;;5.65;;
8191;SDS011;4137;49.764;8.652;2022-07-23T15:36:27;6.03;;;5.63;;
8191;SDS011;4137;49.764;8.652;2022-07-23T15:38:53;5.88;;;5.55;;
8191;SDS011;4137;49.764;8.652;2022-07-23T15:41:19;5.72;;;5.30;;
8191;SDS011;4137;49.764;8.652;2022-07-23T15:43:45;5.75;;;5.45;;
8191;SDS011;4137;49.764;8.652;2022-07-23T15:46:11;6.30;;;5.88;;
8191;SDS011;4137;49.764;8.652;2022-07-23T15:48:37;6.05;;;5.85;;
8191;SDS011;4137;49.764;8.652;2022-07-23T15:51:04;5.90;;;5.45;;
8191;SDS011;4137;49.764;8.652;2022-07-23T15:53:30;6.25;;;6.05;;
8191;SDS011;4137;49.764;8.652;2022-07-23T15:55:56;6.00;;;5.70;;